• Join FlightAware (Why Join?)
  • Login
  • US Flag 
02:01PM EDT


 

Airport Tracker/Info


-or-


 

Live Flight TrackerFlight Track Log ✈ DAL1051 ✈ 01-Aug-2013 ✈ KBIL - KMSP

Flight Track Log - Related Links

Times and Time Zones

All times are in EDT time to prevent confusion due to time zone crossing. See the DAL1051 flight status page for this flight to view local times or setup timezone preferences in your user account.

Time Position Orientation Groundspeed Altitude Reporting Facility
EDT Latitude Longitude Course Direction KTS MPH feet Rate Location/Type
03:33PM 45.7950 -108.4881 101° East 151 174 5,300  Level Salt Lake Center
03:34PM 45.7942 -108.4053 91° East 226 260 6,500 1,860 Climbing Salt Lake Center
03:36PM 45.7607 -108.1241 101° East  Level FlightAware Approximate
03:36PM 45.7847 -108.2997 97° East 269 310 9,200  Level Salt Lake Center
03:37PM 45.7500 -107.9316 90° East  Level FlightAware Approximate
03:37PM 45.7742 -108.1667 96° East 319 367 11,300  Level Salt Lake Center
03:38PM 45.7334 -107.7418 90° East  Level FlightAware Approximate
03:38PM 45.7617 -108.0131 97° East 360 414 14,300  Level Salt Lake Center
03:39PM 45.7168 -107.5502 101° East  Level FlightAware Approximate
03:39PM 45.7497 -107.8650 97° East 381 438 16,600  Level Salt Lake Center
03:41PM 45.7219 -107.5258 97° East 414 476 21,100 1,920 Climbing Salt Lake Center
03:42PM 45.7064 -107.3444 97° East 456 525 22,600 1,560 Climbing Salt Lake Center
03:43PM 45.6897 -107.1589 97° East 470 541 24,400 1,620 Climbing Salt Lake Center
03:44PM 45.6736 -106.9683 97° East 478 550 26,000 1,500 Climbing Salt Lake Center
03:45PM 45.6564 -106.7733 97° East 485 558 27,500 1,560 Climbing Salt Lake Center
03:46PM 45.6375 -106.5769 98° East 491 565 29,300 1,860 Climbing Salt Lake Center
03:47PM 45.6172 -106.3461 97° East 491 565 31,400 1,920 Climbing Salt Lake Center
03:48PM 45.5986 -106.1550 98° East 488 562 33,300 1,680 Climbing Salt Lake Center
03:49PM 45.5814 -105.9692 97° East 479 551 34,900 1,320 Climbing Salt Lake Center
03:50PM 45.5639 -105.7911 98° East 461 531 36,100 660 Climbing Salt Lake Center
03:51PM 45.5458 -105.6106 98° East 459 528 36,300 180 Climbing Salt Lake Center
03:52PM 45.5256 -105.4197 99° East 477 549 36,500 240 Climbing Salt Lake Center
03:53PM 45.5006 -105.1817 98° East 499 574 36,800 240 Climbing Salt Lake Center
03:54PM 45.4789 -104.9781 99° East 515 593 37,100 420 Climbing Salt Lake Center
03:55PM 45.4561 -104.7714 99° East 524 603 37,700 480 Climbing Salt Lake Center
03:56PM 45.4325 -104.5647 99° East 530 610 38,200 420 Climbing Salt Lake Center
03:57PM 45.4081 -104.3622 100° East 535 616 38,600 300 Climbing Salt Lake Center
03:58PM 45.3497 -104.1728 114° Southeast 530 610 38,900 120 Climbing Salt Lake Center
03:59PM 45.3181 -103.9233 100° East 542 624 38,900  Level Salt Lake Center
04:00PM 45.3050 -103.7072 95° East 550 633 38,900  Level Salt Lake Center
04:01PM 45.2925 -103.4922 95° East 550 633 38,900  Level Salt Lake Center
04:02PM 45.2792 -103.2783 95° East 547 629 38,900  Level Salt Lake Center
04:03PM 45.2658 -103.0606 95° East 553 636 38,900  Level Salt Lake Center
04:04PM 45.2489 -102.8022 95° East 553 636 38,900  Level Salt Lake Center
04:06PM 45.2339 -102.5881 96° East 549 632 38,900  Level Salt Lake Center
04:07PM 45.2133 -102.3011 96° East 550 633 39,000  Climbing Minneapolis Center
04:08PM 45.1975 -102.0861 96° East 550 633 39,000  Level Minneapolis Center
04:09PM 45.1803 -101.8708 96° East 550 633 39,000  Level Minneapolis Center
04:10PM 45.1647 -101.6558 96° East 550 633 39,000  Level Minneapolis Center
04:11PM 45.1481 -101.4436 96° East 546 628 39,000  Level Minneapolis Center
04:12PM 45.1278 -101.1881 96° East 545 627 39,000  Level Minneapolis Center
04:13PM 45.1125 -100.9761 96° East 543 625 39,000  Level Minneapolis Center
04:14PM 45.0942 -100.7672 97° East 538 619 39,000  Level Minneapolis Center
04:15PM 45.0758 -100.5567 97° East 539 620 39,000  Level Minneapolis Center
04:16PM 45.0567 -100.3486 97° East 537 618 39,000  Level Minneapolis Center
04:17PM 45.0364 -100.1428 98° East 534 615 39,000  Level Minneapolis Center
04:18PM 45.0117 -99.8881 98° East 542 624 39,000  Level Minneapolis Center
04:19PM 44.9967 -99.6903 96° East 549 632 39,000  Level Minneapolis Center
04:20PM 44.9761 -99.4806 98° East 544 626 39,000  Level Minneapolis Center
04:21PM 44.9514 -99.2294 98° East 541 623 39,000  Level Minneapolis Center
04:22PM 44.9306 -99.0197 98° East 541 623 39,000  Level Minneapolis Center
04:23PM 44.9086 -98.8103 98° East 540 621 39,000 -60 Level Minneapolis Center
04:24PM 44.8878 -98.6022 98° East 538 619 38,900  Descending Minneapolis Center
04:25PM 44.8639 -98.3778 98° East 539 620 39,000  Climbing Minneapolis Center
04:27PM 44.8414 -98.1681 99° East 542 624 39,000  Level Minneapolis Center
04:28PM 44.8181 -97.9569 99° East 545 627 39,000  Level Minneapolis Center
04:29PM 44.7953 -97.7472 99° East 544 626 39,000  Level Minneapolis Center
04:30PM 44.7703 -97.5406 100° East 539 620 39,000  Level Minneapolis Center
04:31PM 44.7408 -97.2919 99° East 537 618 39,000  Level Minneapolis Center
04:32PM 44.7164 -97.0831 99° East 540 621 39,000  Level Minneapolis Center
04:33PM 44.6914 -96.8761 100° East 538 619 39,000  Level Minneapolis Center
04:34PM 44.6664 -96.6681 100° East 539 620 39,000  Level Minneapolis Center
04:35PM 44.6419 -96.4600 99° East 539 620 39,000 -420 Level Minneapolis Center
04:36PM 44.6158 -96.2508 100° East 540 621 38,200 -900 Descending Minneapolis Center
04:37PM 44.5936 -96.0411 98° East 540 621 37,200 -1,980 Descending Minneapolis Center
04:38PM 44.6022 -95.7944 87° East 526 605 34,100 -2,940 Descending Minneapolis Center
04:39PM 44.6100 -95.5894 87° East 523 602 31,100 -2,880 Descending Minneapolis Center
04:40PM 44.6164 -95.3850 87° East 524 603 28,200 -2,760 Descending Minneapolis Center
04:41PM 44.6222 -95.1839 88° East 517 595 25,500 -2,520 Descending Minneapolis Center
04:42PM 44.6278 -94.9953 88° East 492 566 23,000 -2,400 Descending Minneapolis Center
04:43PM 44.6331 -94.8142 88° East 474 545 20,600 -2,520 Descending Minneapolis Center
04:44PM 44.6392 -94.6247 87° East 454 522 17,800 -2,520 Descending Minneapolis Center
04:45PM 44.6417 -94.4581 89° East 430 495 15,500 -2,280 Descending Minneapolis Center
04:46PM 44.6589 -94.3036 81° East 402 463 13,200 -2,220 Descending Minneapolis Center
04:47PM 44.7011 -94.1269 71° East 396 456 11,000 -1,140 Descending Minneapolis Center
04:48PM 44.7336 -93.9783 73° East 399 459 10,900 -60 Descending Minneapolis Center
04:49PM 44.7614 -93.8511 73° East 338 389 10,900  Level Minneapolis Center
04:50PM 44.7886 -93.7311 72° East 323 372 10,900  Level Minneapolis Center
04:51PM 44.8119 -93.6261 73° East 282 325 10,900 -300 Level Minneapolis Center
04:52PM 44.8347 -93.5211 73° East 280 322 10,300 -660 Descending Minneapolis Center
04:53PM 44.8572 -93.4186 73° East 274 315 9,600 -720 Descending Minneapolis Center
04:54PM 44.8281 -93.3203 113° Southeast 257 296 8,900 -720 Descending Minneapolis Center
04:55PM 44.7650 -93.3097 173° South 238 274 8,200 -780 Descending Minneapolis Center
04:57PM 44.7061 -93.3169 185° South 219 252 7,400 -900 Descending Minneapolis Center
04:58PM 44.6456 -93.2992 168° South 226 260 6,400 -1,140 Descending Minneapolis Center
04:59PM 44.6250 -93.2192 110° East 219 252 5,100 -1,020 Descending Minneapolis Center
05:00PM 44.6739 -93.1886 24° Northeast 200 230 4,300 -900 Descending Minneapolis Center
05:01PM 44.7250 -93.2003 351° North 186 214 3,200 -960 Descending Minneapolis Center
05:02PM 44.7822 -93.2147 350° North 186 214 2,400 -780 Descending Minneapolis Center
05:03PM 44.8247 -93.2258 349° North 153 176 1,600 -780 Descending Minneapolis Center